METAR Data
IDs: Format: Raw Decoded Include TAF

Data at: 0425 UTC 26 Sep 2018

KSFQ 260415Z AUTO 00000KT 2 1/2SM BR SCT003 OVC013 23/23 A3011 RMK AO2 T02340232
KSFQ 260355Z AUTO 00000KT 1 3/4SM BR OVC003 24/23 A3012 RMK AO2 T02350232
KSFQ 260335Z AUTO 00000KT 5SM BR BKN003 OVC010 24/24 A3013 RMK AO2 T02370235
KSFQ 260315Z AUTO 00000KT 4SM BR BKN003 BKN010 OVC024 24/24 A3013 RMK AO2 T02370235
KSFQ 260255Z AUTO 00000KT 2 1/2SM BR OVC003 24/24 A3014 RMK AO2 T02370235
KSFQ 260235Z AUTO 00000KT 5SM BR OVC003 24/24 A3013 RMK AO2 T02380236
KSFQ 260215Z AUTO 00000KT 7SM OVC003 24/24 A3013 RMK AO2 T02390237
KSFQ 260155Z AUTO 00000KT 5SM BR BKN003 BKN007 OVC020 24/24 A3013 RMK AO2 T02400238
KSFQ 260135Z AUTO 00000KT 5SM BR SCT005 BKN017 BKN025 24/24 A3013 RMK AO2 T02410240
KSFQ 260115Z AUTO 00000KT 7SM SCT005 SCT015 25/24 A3013 RMK AO2 T02450242
KSFQ 260055Z AUTO 00000KT 7SM CLR 25/25 A3013 RMK AO2 T02460245
KSFQ 260035Z AUTO 00000KT 10SM SCT009 SCT055 25/25 A3013 RMK AO2 T02460245
KSFQ 260015Z AUTO 00000KT 10SM SCT009 BKN033 OVC055 25/25 A3014 RMK AO2 T02500247
KSFQ 252355Z AUTO 00000KT 10SM SCT018 SCT025 OVC030 25/25 A3014 RMK AO2 T02510250 10295 20251
KSFQ 252335Z AUTO 00000KT 10SM SCT009 BKN013 OVC021 25/25 A3014 RMK AO2 T02530250
KSFQ 252315Z AUTO 08004KT 10SM BKN009 OVC014 26/25 A3014 RMK AO2 T02550250
KSFQ 252255Z AUTO 00000KT 10SM OVC012 26/25 A3014 RMK AO2 T02550250
KSFQ 252235Z AUTO 00000KT 10SM OVC014 26/25 A3015 RMK AO2 T02560247
KSFQ 252215Z AUTO 00000KT 10SM OVC016 26/24 A3015 RMK AO2 T02550241
KSFQ 252155Z AUTO 00000KT 10SM BKN018 OVC048 26/24 A3015 RMK AO2 T02560238
KSFQ 252135Z AUTO 00000KT 10SM -DZ SCT020 BKN031 OVC070 26/24 A3015 RMK AO2 LTG DSNT SW T02570237
KSFQ 252115Z AUTO 00000KT 10SM -RA SCT013 BKN047 OVC110 26/23 A3015 RMK AO2 LTG DSNT SW T02600234
KSFQ 252055Z AUTO 00000KT 10SM SCT015 SCT033 BKN120 26/24 A3015 RMK AO2 LTG DSNT SW T02640239
KSFQ 252035Z AUTO 00000KT 10SM VCTS SCT012 SCT022 BKN120 26/24 A3015 RMK AO2 LTG DSNT SW T02640237
KSFQ 252015Z AUTO 00000KT 10SM BKN012 BKN022 OVC090 27/24 A3016 RMK AO2 T02650239
KSFQ 251955Z AUTO 00000KT 10SM SCT012 BKN090 BKN120 27/24 A3016 RMK AO2 T02690238
KSFQ 251935Z AUTO 08006KT 10SM BKN012 BKN017 28/24 A3015 RMK AO2 T02780241
KSFQ 251915Z AUTO 10003KT 10SM BKN009 BKN055 OVC085 27/24 A3016 RMK AO2 LTG DSNT S T02690244
KSFQ 251855Z AUTO 10008KT 10SM SCT007 BKN055 OVC085 27/24 A3017 RMK AO2 T02720244
KSFQ 251835Z AUTO 00000KT 10SM SCT009 BKN034 OVC070 27/25 A3017 RMK AO2 LTG DSNT SE T02670245
KSFQ 251815Z AUTO 14006KT 10SM -VCTSRA SCT027 BKN036 OVC050 27/24 A3018 RMK AO2 LTG DSNT E AND SE T02700236
KSFQ 251755Z AUTO 10005KT 10SM SCT036 SCT042 BKN050 29/24 A3017 RMK AO2 LTG DSNT E AND SE T02930238 10301 20229
KSFQ 251735Z AUTO 14006KT 10SM SCT027 BKN036 OVC043 29/23 A3018 RMK AO2 LTG DSNT SE T02860234
KSFQ 251715Z AUTO 11005KT 10SM SCT027 BKN038 BKN046 29/23 A3019 RMK AO2 T02920232
KSFQ 251655Z AUTO 14003KT 10SM SCT027 SCT040 BKN046 29/23 A3019 RMK AO2 LTG DSNT E T02910229
KSFQ 251635Z AUTO 09007KT 10SM BKN027 BKN034 BKN100 30/23 A3020 RMK AO2 LTG DSNT SE T02980231
KSFQ 251615Z AUTO 12004KT 10SM SCT025 SCT031 BKN036 29/23 A3021 RMK AO2 T02860227
KSFQ 251555Z AUTO 10005KT 10SM SCT027 SCT034 BKN043 29/22 A3021 RMK AO2 T02900224
KSFQ 251535Z AUTO 14004KT 10SM SCT027 SCT036 SCT050 29/23 A3022 RMK AO2 T02910227
KSFQ 251515Z AUTO 14003KT 10SM SCT025 SCT033 SCT042 28/23 A3023 RMK AO2 T02830225
KSFQ 251455Z AUTO 09005KT 10SM SCT023 BKN029 BKN035 28/23 A3024 RMK AO2 LTG DSNT SE T02800233
KSFQ 251435Z AUTO 12007KT 10SM BKN020 BKN033 28/23 A3024 RMK AO2 LTG DSNT S T02760230
KSFQ 251415Z AUTO 12003KT 10SM SCT018 28/23 A3025 RMK AO2 T02750234
KSFQ 251355Z AUTO 11004KT 10SM CLR 27/23 A3025 RMK AO2 T02690231
KSFQ 251335Z AUTO 00000KT 10SM SCT027 SCT038 26/23 A3025 RMK AO2 LTG DSNT SE T02640233
KSFQ 251315Z AUTO 00000KT 10SM VCTS SCT027 26/24 A3025 RMK AO2 T02560236
KSFQ 251255Z AUTO 00000KT 10SM CLR 25/24 A3024 RMK AO2 T02500241
KSFQ 251235Z AUTO 00000KT 10SM CLR 24/24 A3024 RMK AO2 T02430239
KSFQ 251215Z AUTO 00000KT 10SM CLR 24/23 A3024 RMK AO2 T02350233
KSFQ 251155Z AUTO 00000KT 7SM CLR 23/23 A3024 RMK AO2 70014 T02270226 10230 20216
KSFQ 251135Z AUTO 00000KT 4SM BR CLR 22/22 A3024 RMK AO2 T02160215
KSFQ 251115Z AUTO 00000KT 1 1/2SM BR VV007 22/22 A3024 RMK AO2 T02170216
KSFQ 251055Z AUTO 00000KT 1SM BR VV007 22/22 A3023 RMK AO2 T02160215
KSFQ 251035Z AUTO 00000KT 4SM BR CLR 22/22 A3022 RMK AO2 T02200218
KSFQ 251015Z AUTO 00000KT 4SM BR CLR 22/22 A3021 RMK AO2 T02200219
KSFQ 250955Z AUTO 00000KT 3SM BR SCT024 22/22 A3022 RMK AO2 T02170216
KSFQ 250935Z AUTO 00000KT 1 1/4SM BR SCT003 SCT024 22/22 A3021 RMK AO2 T02180217
KSFQ 250915Z AUTO 00000KT 2SM BR CLR 22/22 A3022 RMK AO2 VIS 1V5 T02200218
KSFQ 250855Z AUTO 00000KT 5SM BR CLR 22/22 A3022 RMK AO2 T02230222
KSFQ 250835Z AUTO 00000KT 7SM SCT027 SCT039 22/22 A3022 RMK AO2 T02230222
KSFQ 250815Z AUTO 00000KT 5SM BR CLR 22/22 A3022 RMK AO2 T02220221
KSFQ 250755Z AUTO 00000KT 7SM CLR 23/23 A3022 RMK AO2 T02250225
KSFQ 250735Z AUTO 00000KT 7SM CLR 23/22 A3022 RMK AO2 T02250223
KSFQ 250715Z AUTO 00000KT 7SM SCT070 SCT100 23/23 A3023 RMK AO2 T02270225
KSFQ 250655Z AUTO 00000KT 7SM OVC070 23/23 A3024 RMK AO2 T02300227
KSFQ 250635Z AUTO 00000KT 10SM OVC070 23/23 A3024 RMK AO2 T02280226
KSFQ 250615Z AUTO 00000KT 10SM BKN070 OVC095 23/22 A3025 RMK AO2 LTG DSNT S T02250223
KSFQ 250555Z AUTO 00000KT 10SM SCT050 SCT070 OVC095 23/23 A3025 RMK AO2 T02250225 10237 20223
KSFQ 250535Z AUTO 00000KT 10SM SCT060 BKN095 23/23 A3025 RMK AO2 T02260225
KSFQ 250515Z AUTO 00000KT 7SM SCT048 OVC060 23/23 A3025 RMK AO2 T02270225
KSFQ 250455Z AUTO 00000KT 10SM BKN046 OVC060 23/23 A3026 RMK AO2 T02290227 402800199
KSFQ 250435Z AUTO 00000KT 7SM RA SCT029 BKN041 OVC046 23/23 A3027 RMK AO2 T02280226
KSFQ 250415Z AUTO 00000KT 10SM SCT043 BKN060 BKN090 23/22 A3027 RMK AO2 T02250223
KSFQ 250355Z AUTO 00000KT 7SM SCT060 BKN090 23/23 A3026 RMK AO2 T02260225
KSFQ 250335Z AUTO 00000KT 10SM OVC090 23/23 A3027 RMK AO2 T02280226
KSFQ 250315Z AUTO 00000KT 10SM BKN090 23/23 A3026 RMK AO2 T02260225
KSFQ 250255Z AUTO 05004KT 10SM SCT090 22/22 A3026 RMK AO2 T02240223
KSFQ 250235Z AUTO 06003KT 10SM CLR 23/22 A3026 RMK AO2 T02250223
KSFQ 250215Z AUTO 07003KT 10SM CLR 23/23 A3026 RMK AO2 T02260225
KSFQ 250155Z AUTO 07003KT 10SM CLR 23/23 A3026 RMK AO2 T02300227
KSFQ 250135Z AUTO 08004KT 10SM CLR 23/23 A3026 RMK AO2 T02310230
KSFQ 250115Z AUTO 07003KT 10SM SCT014 23/23 A3025 RMK AO2 T02340230
KSFQ 250055Z AUTO 07005KT 10SM OVC014 24/23 A3024 RMK AO2 T02350230
KSFQ 250035Z AUTO 00000KT 10SM BKN012 24/23 A3024 RMK AO2 T02350227
KSFQ 250015Z AUTO 07003KT 10SM CLR 24/22 A3024 RMK AO2 T02350222
KSFQ 242355Z AUTO 08005KT 10SM SCT015 SCT060 24/22 A3024 RMK AO2 60014 T02380220 10277 20236
KSFQ 242335Z AUTO 00000KT 10SM OVC060 24/22 A3024 RMK AO2 T02420221
KSFQ 242315Z AUTO 00000KT 10SM OVC060 24/22 A3023 RMK AO2 T02420222
KSFQ 242255Z AUTO 00000KT 10SM OVC050 25/22 A3022 RMK AO2 T02450223
KSFQ 242235Z AUTO 00000KT 10SM BKN050 OVC060 25/23 A3022 RMK AO2 T02480227
KSFQ 242215Z AUTO 08005KT 10SM SCT026 SCT044 OVC050 25/23 A3022 RMK AO2 T02490229
KSFQ 242155Z AUTO 09006KT 10SM SCT026 BKN050 OVC055 25/23 A3022 RMK AO2 T02500227
KSFQ 242135Z AUTO 10007KT 7SM RA SCT026 BKN046 OVC050 25/23 A3021 RMK AO2 T02540233
KSFQ 242115Z AUTO 05006KT 10SM BKN043 OVC050 26/24 A3021 RMK AO2 T02600237
KSFQ 242055Z AUTO 07006KT 10SM BKN043 BKN055 BKN095 26/24 A3021 RMK AO2 60014 T02630235
KSFQ 242035Z AUTO 07006KT 10SM SCT048 BKN055 BKN095 26/24 A3020 RMK AO2 T02610240
KSFQ 242015Z AUTO 00000KT 10SM SCT026 SCT048 BKN055 26/24 A3020 RMK AO2 T02580240
KSFQ 241955Z AUTO 00000KT 10SM -RA SCT026 SCT043 OVC050 25/24 A3021 RMK AO2 P0014 T02450241
KSFQ 241935Z AUTO 00000KT 2 1/2SM +RA SCT023 BKN041 OVC050 24/22 A3021 RMK AO2 P0013 T02360222
KSFQ 241915Z AUTO 11007KT 10SM SCT024 BKN029 OVC049 26/22 A3021 RMK AO2 T02640224
KSFQ 241855Z AUTO 00000KT 10SM -RA BKN025 BKN038 OVC048 27/22 A3021 RMK AO2 T02700222
KSFQ 241835Z AUTO 00000KT 10SM BKN025 BKN065 OVC090 28/22 A3022 RMK AO2 T02750220
KSFQ 241815Z AUTO 00000KT 10SM SCT023 SCT032 BKN090 27/22 A3023 RMK AO2 T02720215
KSFQ 241755Z AUTO 00000KT 10SM BKN023 BKN031 27/22 A3023 RMK AO2 T02730221 10280 20201
KSFQ 241735Z AUTO 05005KT 10SM SCT021 SCT025 SCT085 28/21 A3024 RMK AO2 T02800213
KSFQ 241715Z AUTO 06006KT 10SM SCT019 OVC085 28/22 A3025 RMK AO2 T02760221
KSFQ 241655Z AUTO 05008KT 10SM SCT017 OVC085 27/22 A3025 RMK AO2 T02710221
KSFQ 241635Z AUTO 01007KT 340V040 10SM SCT017 BKN085 27/22 A3025 RMK AO2 T02680220